createdAt,value
2019-03-26T00:02:22.816Z,63.65
2019-03-26T00:04:52.002Z,63.73
2019-03-26T00:07:21.190Z,63.83
2019-03-26T00:09:50.386Z,64.14
2019-03-26T00:12:19.557Z,64.20
2019-03-26T00:14:48.737Z,64.43
2019-03-26T00:17:17.952Z,64.96
2019-03-26T00:19:47.117Z,65.09
2019-03-26T00:22:16.312Z,64.78
2019-03-26T00:24:45.493Z,65.28
2019-03-26T00:27:14.658Z,65.12
2019-03-26T00:29:43.881Z,65.16
2019-03-26T00:32:13.054Z,65.34
2019-03-26T00:34:42.247Z,65.15
2019-03-26T00:37:11.484Z,65.17
2019-03-26T00:39:40.665Z,64.67
2019-03-26T00:42:09.893Z,64.55
2019-03-26T00:44:39.284Z,64.47
2019-03-26T00:47:08.452Z,64.63
2019-03-26T00:49:37.635Z,64.69
2019-03-26T00:52:06.889Z,64.50
2019-03-26T00:54:36.079Z,64.13
2019-03-26T00:57:05.273Z,64.19
2019-03-26T00:59:36.212Z,63.87
2019-03-26T01:02:05.381Z,62.89
2019-03-26T01:04:34.557Z,63.13
2019-03-26T01:07:03.828Z,62.75
2019-03-26T01:09:32.990Z,62.88
2019-03-26T01:12:02.164Z,62.89
2019-03-26T01:14:31.347Z,62.91
2019-03-26T01:17:00.517Z,63.23
2019-03-26T01:19:29.757Z,63.38
2019-03-26T01:21:58.956Z,63.70
2019-03-26T01:24:28.115Z,63.82
2019-03-26T01:26:57.313Z,64.42
2019-03-26T01:29:26.483Z,64.71
2019-03-26T01:31:55.655Z,64.81
2019-03-26T01:34:24.833Z,64.97
2019-03-26T01:36:54.058Z,65.11
2019-03-26T01:39:23.235Z,65.36
2019-03-26T01:41:52.418Z,65.56
2019-03-26T01:44:21.592Z,65.97
2019-03-26T01:46:50.757Z,66.06
2019-03-26T01:49:19.964Z,66.19
2019-03-26T01:51:49.133Z,66.10
2019-03-26T01:54:18.301Z,66.53
2019-03-26T01:56:47.500Z,66.84
2019-03-26T01:59:16.675Z,66.96
2019-03-26T02:01:45.933Z,67.18
2019-03-26T02:04:15.110Z,67.86
2019-03-26T02:06:44.276Z,67.92
2019-03-26T02:09:15.634Z,68.32
2019-03-26T02:11:44.820Z,68.73
2019-03-26T02:14:13.991Z,68.77
2019-03-26T02:16:43.196Z,68.99
2019-03-26T02:19:12.360Z,69.29
2019-03-26T02:21:41.612Z,69.42
2019-03-26T02:24:10.786Z,69.67
2019-03-26T02:26:39.955Z,69.67
2019-03-26T02:29:09.133Z,69.79
2019-03-26T02:31:38.299Z,70.05
2019-03-26T02:34:07.575Z,70.02
2019-03-26T02:36:36.759Z,70.20
2019-03-26T02:39:07.360Z,70.47
2019-03-26T02:41:38.125Z,70.76
2019-03-26T02:44:07.533Z,70.81
2019-03-26T02:46:36.721Z,71.05
2019-03-26T02:49:05.892Z,71.22
2019-03-26T02:51:35.080Z,71.28
2019-03-26T02:54:04.605Z,71.15
2019-03-26T02:56:33.775Z,71.25
2019-03-26T02:59:02.948Z,71.35
2019-03-26T03:01:32.118Z,71.30
2019-03-26T03:04:01.309Z,71.35
2019-03-26T03:06:30.488Z,71.30
2019-03-26T03:08:59.719Z,71.59
2019-03-26T03:11:28.948Z,71.68
2019-03-26T03:13:58.348Z,71.97
2019-03-26T03:16:27.632Z,72.09
2019-03-26T03:18:56.806Z,72.67
2019-03-26T03:21:27.795Z,72.79
2019-03-26T03:23:57.008Z,72.67
2019-03-26T03:26:26.180Z,72.51
2019-03-26T03:28:55.353Z,72.53
2019-03-26T03:31:24.657Z,73.00
2019-03-26T03:33:53.870Z,73.24
2019-03-26T03:36:23.056Z,73.33
2019-03-26T03:38:52.253Z,73.57
2019-03-26T03:41:21.427Z,73.99
2019-03-26T03:43:50.628Z,74.07
2019-03-26T03:46:19.867Z,74.84
2019-03-26T03:48:49.785Z,75.08
2019-03-26T03:51:22.242Z,75.09
2019-03-26T03:53:51.558Z,75.31
2019-03-26T03:56:22.422Z,75.54
2019-03-26T03:58:52.465Z,75.70
2019-03-26T04:01:21.646Z,75.63
2019-03-26T04:03:50.827Z,75.61
2019-03-26T04:06:19.997Z,75.58
2019-03-26T04:08:49.239Z,75.74
2019-03-26T04:11:18.423Z,75.89
2019-03-26T04:13:47.542Z,75.62
2019-03-26T04:16:16.717Z,75.40
2019-03-26T04:18:45.831Z,75.30
2019-03-26T04:21:15.372Z,75.20
2019-03-26T04:23:44.545Z,75.13
2019-03-26T04:26:13.788Z,75.09
2019-03-26T04:28:42.972Z,75.20
2019-03-26T04:31:12.171Z,75.38
2019-03-26T04:33:41.329Z,75.19
2019-03-26T04:36:24.582Z,75.17
2019-03-26T04:38:41.407Z,75.20
2019-03-26T04:41:10.575Z,75.18
2019-03-26T04:43:39.776Z,75.18
2019-03-26T04:46:08.934Z,74.92
2019-03-26T04:48:38.139Z,74.90
2019-03-26T04:51:07.323Z,75.00
2019-03-26T04:53:36.574Z,74.78
2019-03-26T04:56:05.932Z,74.58
2019-03-26T04:58:35.197Z,74.83
2019-03-26T05:01:04.454Z,75.01
2019-03-26T05:03:33.642Z,75.26
2019-03-26T05:06:02.743Z,75.02
2019-03-26T05:08:31.913Z,74.87
2019-03-26T05:11:01.105Z,75.02
2019-03-26T05:13:30.277Z,75.31
2019-03-26T05:15:59.397Z,75.18
2019-03-26T05:18:28.493Z,75.15
2019-03-26T05:20:57.664Z,75.26
2019-03-26T05:23:26.843Z,74.92
2019-03-26T05:25:56.855Z,75.03
2019-03-26T05:28:26.062Z,75.22
2019-03-26T05:30:55.171Z,75.48
2019-03-26T05:33:24.333Z,75.73
2019-03-26T05:35:53.580Z,75.70
2019-03-26T05:38:22.774Z,75.85
2019-03-26T05:40:51.988Z,75.69
2019-03-26T05:43:21.177Z,75.85
2019-03-26T05:45:50.349Z,75.79
2019-03-26T05:48:19.530Z,75.68
2019-03-26T05:50:48.843Z,75.15
2019-03-26T05:53:18.065Z,75.11
2019-03-26T05:55:47.328Z,74.80
2019-03-26T05:58:16.500Z,74.43
2019-03-26T06:00:45.667Z,74.38
2019-03-26T06:03:14.844Z,74.09
2019-03-26T06:05:44.089Z,73.90
2019-03-26T06:08:13.245Z,73.91
2019-03-26T06:10:42.413Z,73.54
2019-03-26T06:13:11.586Z,73.16
2019-03-26T06:15:40.757Z,73.05
2019-03-26T06:18:09.965Z,72.28
2019-03-26T06:20:39.167Z,72.14
2019-03-26T06:23:08.247Z,72.15
2019-03-26T06:25:37.438Z,72.45
2019-03-26T06:28:06.623Z,72.94
2019-03-26T06:30:35.824Z,73.29
2019-03-26T06:33:05.007Z,73.52
2019-03-26T06:35:34.187Z,73.59
2019-03-26T06:38:03.385Z,74.13
2019-03-26T06:40:32.493Z,74.06
2019-03-26T06:43:01.689Z,73.56
2019-03-26T06:45:30.864Z,73.65
2019-03-26T06:48:00.074Z,73.03
2019-03-26T06:50:29.332Z,72.57
2019-03-26T06:52:58.438Z,71.70
2019-03-26T06:55:27.609Z,70.27
2019-03-26T06:57:56.787Z,66.15
2019-03-26T07:00:35.356Z,66.15
2019-03-26T07:03:06.303Z,64.65
2019-03-26T07:05:35.510Z,64.65
2019-03-26T07:08:04.759Z,63.38
2019-03-26T07:10:33.921Z,64.50
2019-03-26T07:13:03.112Z,63.87
2019-03-26T07:15:32.307Z,64.75
2019-03-26T07:18:01.496Z,64.35
2019-03-26T07:20:30.682Z,64.38
2019-03-26T07:22:59.947Z,63.40
2019-03-26T07:25:29.096Z,62.61
2019-03-26T07:27:58.308Z,61.89
2019-03-26T07:30:39.200Z,62.24
2019-03-26T07:33:08.554Z,63.25
2019-03-26T07:35:37.801Z,65.34
2019-03-26T07:38:07.132Z,67.92
2019-03-26T07:40:36.402Z,67.94
2019-03-26T07:43:05.801Z,67.94
2019-03-26T07:45:35.071Z,67.73
2019-03-26T07:48:04.438Z,67.73
2019-03-26T07:50:33.681Z,67.99
2019-03-26T07:53:02.876Z,68.01
2019-03-26T07:55:32.134Z,68.01
2019-03-26T07:58:01.327Z,68.54
2019-03-26T08:00:32.957Z,68.54
2019-03-26T08:03:02.186Z,68.22
2019-03-26T08:05:31.364Z,67.96
2019-03-26T08:08:00.677Z,67.52
2019-03-26T08:10:29.932Z,67.61
2019-03-26T08:12:59.153Z,67.00
2019-03-26T08:15:28.349Z,66.13
2019-03-26T08:17:57.485Z,63.73
2019-03-26T08:20:26.677Z,63.73
2019-03-26T08:22:55.876Z,64.54
2019-03-26T08:25:25.089Z,65.10
2019-03-26T08:27:54.258Z,65.12
2019-03-26T08:30:23.440Z,66.22
2019-03-26T08:32:52.615Z,66.04
2019-03-26T08:35:21.805Z,66.77
2019-03-26T08:37:50.995Z,67.35
2019-03-26T08:40:23.247Z,67.35
2019-03-26T08:42:51.060Z,66.87
2019-03-26T08:45:20.275Z,66.87
2019-03-26T08:47:49.459Z,65.10
2019-03-26T08:50:18.699Z,65.10
2019-03-26T08:52:47.869Z,65.02
2019-03-26T08:55:17.036Z,65.34
2019-03-26T08:57:46.234Z,65.34
2019-03-26T09:00:15.821Z,65.34
2019-03-26T09:02:45.060Z,65.53
2019-03-26T09:05:14.478Z,66.65
2019-03-26T09:07:43.661Z,66.65
2019-03-26T09:10:14.037Z,65.50
2019-03-26T09:12:43.230Z,64.86
2019-03-26T09:15:14.439Z,64.78
2019-03-26T09:17:44.676Z,63.36
2019-03-26T09:20:14.406Z,63.23
2019-03-26T09:22:43.629Z,63.23
2019-03-26T09:25:13.040Z,63.57
2019-03-26T09:27:42.226Z,64.05
2019-03-26T09:30:13.330Z,64.70
2019-03-26T09:32:42.510Z,64.85
2019-03-26T09:35:12.338Z,64.85
2019-03-26T09:37:41.521Z,64.56
2019-03-26T09:40:11.035Z,64.56
2019-03-26T09:42:40.334Z,64.06
2019-03-26T09:45:11.994Z,63.58
2019-03-26T09:47:41.181Z,63.61
2019-03-26T09:50:11.653Z,63.61
2019-03-26T09:52:40.771Z,64.55
2019-03-26T09:55:10.395Z,64.89
2019-03-26T09:57:39.663Z,64.38
2019-03-26T10:00:12.644Z,63.29
2019-03-26T10:02:43.338Z,62.08
2019-03-26T10:05:13.145Z,60.67
2019-03-26T10:07:42.342Z,60.68
2019-03-26T10:10:13.202Z,60.68
2019-03-26T10:12:42.379Z,59.94
2019-03-26T10:15:12.111Z,59.73
2019-03-26T10:17:41.300Z,59.83
2019-03-26T10:20:10.628Z,59.83
2019-03-26T10:22:39.897Z,58.89
2019-03-26T10:25:11.252Z,58.89
2019-03-26T10:27:40.519Z,58.15
2019-03-26T10:30:12.577Z,56.90
2019-03-26T10:32:41.754Z,57.30
2019-03-26T10:35:11.176Z,57.28
2019-03-26T10:37:40.389Z,55.68
2019-03-26T10:40:11.851Z,55.29
2019-03-26T10:42:41.042Z,54.79
2019-03-26T10:45:10.362Z,54.79
2019-03-26T10:47:39.524Z,54.28
2019-03-26T10:50:09.339Z,53.99
2019-03-26T10:52:38.528Z,53.99
2019-03-26T10:55:07.785Z,53.59
2019-03-26T10:57:36.971Z,53.39
2019-03-26T11:00:06.905Z,53.54
2019-03-26T11:02:36.075Z,53.43
2019-03-26T11:05:08.568Z,53.43
2019-03-26T11:07:37.749Z,52.66
2019-03-26T11:10:08.267Z,53.49
2019-03-26T11:12:37.576Z,53.08
2019-03-26T11:15:08.695Z,54.05
2019-03-26T11:17:37.888Z,53.61
2019-03-26T11:20:08.127Z,54.78
2019-03-26T11:22:37.464Z,54.78
2019-03-26T11:25:11.880Z,57.07
2019-03-26T11:27:39.738Z,55.44
2019-03-26T11:30:10.069Z,55.02
2019-03-26T11:32:39.274Z,56.66
2019-03-26T11:35:08.984Z,56.59
2019-03-26T11:37:39.143Z,56.67
2019-03-26T11:40:09.051Z,57.73
2019-03-26T11:42:38.220Z,58.38
2019-03-26T11:45:09.286Z,58.62
2019-03-26T11:47:39.793Z,58.13
2019-03-26T11:50:10.346Z,56.22
2019-03-26T11:52:40.376Z,55.57
2019-03-26T11:55:11.319Z,56.12
2019-03-26T11:57:40.487Z,55.55
2019-03-26T12:00:13.306Z,55.04
2019-03-26T12:02:42.548Z,56.69
2019-03-26T12:05:12.250Z,55.54
2019-03-26T12:07:42.906Z,55.54
2019-03-26T12:10:13.558Z,56.81
2019-03-26T12:12:42.755Z,57.04
2019-03-26T12:15:12.600Z,56.55
2019-03-26T12:17:41.783Z,56.55
2019-03-26T12:20:11.523Z,57.02
2019-03-26T12:22:40.968Z,56.12
2019-03-26T12:25:10.688Z,55.34
2019-03-26T12:27:39.875Z,55.34
2019-03-26T12:30:09.393Z,55.27
2019-03-26T12:32:40.937Z,55.15
2019-03-26T12:35:11.434Z,55.36
2019-03-26T12:37:40.618Z,55.36
2019-03-26T12:40:09.993Z,56.33
2019-03-26T12:42:39.176Z,55.62
2019-03-26T12:45:08.696Z,55.10
2019-03-26T12:47:37.897Z,55.79
2019-03-26T12:50:07.793Z,56.39
2019-03-26T12:52:36.965Z,55.43
2019-03-26T12:55:06.894Z,55.57
2019-03-26T12:57:36.096Z,55.57
2019-03-26T13:00:07.296Z,56.28
2019-03-26T13:02:36.518Z,56.02
2019-03-26T13:05:08.901Z,55.63
2019-03-26T13:07:38.040Z,55.47
2019-03-26T13:10:13.731Z,53.89
2019-03-26T13:12:38.958Z,55.44
2019-03-26T13:15:08.388Z,55.65
2019-03-26T13:17:37.578Z,55.65
2019-03-26T13:20:07.600Z,56.00
2019-03-26T13:22:36.816Z,55.08
2019-03-26T13:25:08.349Z,55.21
2019-03-26T13:27:37.604Z,54.12
2019-03-26T13:30:07.835Z,54.82
2019-03-26T13:32:37.014Z,54.33
2019-03-26T13:35:08.888Z,54.37
2019-03-26T13:37:38.108Z,55.40
2019-03-26T13:40:08.300Z,55.14
2019-03-26T13:42:37.602Z,55.42
2019-03-26T13:45:07.731Z,54.71
2019-03-26T13:47:36.881Z,55.38
2019-03-26T13:50:06.931Z,56.55
2019-03-26T13:52:36.232Z,55.10
2019-03-26T13:55:09.330Z,54.89
2019-03-26T13:57:38.512Z,55.00
2019-03-26T14:00:09.088Z,54.63
2019-03-26T14:02:38.264Z,54.63
2019-03-26T14:05:25.781Z,54.99
2019-03-26T14:07:55.054Z,54.83
2019-03-26T14:10:24.313Z,53.49
2019-03-26T14:12:53.499Z,52.86
2019-03-26T14:15:22.690Z,53.92
2019-03-26T14:17:51.896Z,53.62
2019-03-26T14:20:21.217Z,53.19
2019-03-26T14:22:50.394Z,54.15
2019-03-26T14:25:19.591Z,53.72
2019-03-26T14:27:48.796Z,53.35
2019-03-26T14:30:21.055Z,53.87
2019-03-26T14:32:50.797Z,53.00
2019-03-26T14:35:20.157Z,51.98
2019-03-26T14:37:51.400Z,51.80
2019-03-26T14:40:20.220Z,52.84
2019-03-26T14:42:49.426Z,52.98
2019-03-26T14:45:18.667Z,52.67
2019-03-26T14:47:47.844Z,52.62
2019-03-26T14:50:17.145Z,52.86
2019-03-26T14:52:46.316Z,52.02
2019-03-26T14:55:15.613Z,52.27
2019-03-26T14:57:44.812Z,52.58
2019-03-26T15:00:14.350Z,53.54
2019-03-26T15:02:43.552Z,52.95
2019-03-26T15:05:12.871Z,53.06
2019-03-26T15:07:42.210Z,53.19
2019-03-26T15:10:11.641Z,53.24
2019-03-26T15:12:40.853Z,53.31
2019-03-26T15:15:10.175Z,53.92
2019-03-26T15:17:39.357Z,54.72
2019-03-26T15:20:09.046Z,55.74
2019-03-26T15:22:38.241Z,56.20
2019-03-26T15:25:07.509Z,55.54
2019-03-26T15:27:36.682Z,55.10
2019-03-26T15:30:08.409Z,55.10
2019-03-26T15:32:37.519Z,55.18
2019-03-26T15:35:07.349Z,55.75
2019-03-26T15:37:36.532Z,56.90
2019-03-26T15:40:07.643Z,56.90
2019-03-26T15:42:36.835Z,56.22
2019-03-26T15:45:08.083Z,55.44
2019-03-26T15:47:37.215Z,55.33
2019-03-26T15:50:07.143Z,56.65
2019-03-26T15:52:36.323Z,57.19
2019-03-26T15:55:06.462Z,57.27
2019-03-26T15:57:35.643Z,57.46
2019-03-26T16:00:08.097Z,57.95
2019-03-26T16:02:37.697Z,58.21
2019-03-26T16:05:08.423Z,59.04
2019-03-26T16:07:37.623Z,59.72
2019-03-26T16:10:08.766Z,59.83
2019-03-26T16:12:41.212Z,60.52
2019-03-26T16:15:09.007Z,60.54
2019-03-26T16:17:38.191Z,61.45
2019-03-26T16:20:08.642Z,61.45
2019-03-26T16:22:37.783Z,63.05
2019-03-26T16:25:07.530Z,62.85
2019-03-26T16:27:36.712Z,63.35
2019-03-26T16:30:07.968Z,64.33
2019-03-26T16:32:37.222Z,64.33
2019-03-26T16:35:06.944Z,64.89
2019-03-26T16:37:36.150Z,65.12
2019-03-26T16:40:08.387Z,65.94
2019-03-26T16:42:37.595Z,66.49
2019-03-26T16:45:08.593Z,66.98
2019-03-26T16:47:37.790Z,67.66
2019-03-26T16:50:08.947Z,67.73
2019-03-26T16:52:38.172Z,67.42
2019-03-26T16:55:07.621Z,67.19
2019-03-26T16:57:36.930Z,67.26
2019-03-26T17:00:09.975Z,67.65
2019-03-26T17:02:40.971Z,67.65
2019-03-26T17:05:10.583Z,67.06
2019-03-26T17:07:39.805Z,67.06
2019-03-26T17:10:09.531Z,67.17
2019-03-26T17:12:38.726Z,67.03
2019-03-26T17:15:08.801Z,67.03
2019-03-26T17:17:37.970Z,68.43
2019-03-26T17:20:07.929Z,69.03
2019-03-26T17:22:37.117Z,69.75
2019-03-26T17:25:08.104Z,69.91
2019-03-26T17:27:37.339Z,70.26
2019-03-26T17:30:07.609Z,70.26
2019-03-26T17:32:36.813Z,70.74
2019-03-26T17:35:07.227Z,71.13
2019-03-26T17:37:36.458Z,71.04
2019-03-26T17:40:06.574Z,70.96
2019-03-26T17:42:35.811Z,71.04
2019-03-26T17:45:06.283Z,71.34
2019-03-26T17:47:35.455Z,71.67
2019-03-26T17:50:06.977Z,72.14
2019-03-26T17:52:36.169Z,72.50
2019-03-26T17:55:07.667Z,72.70
2019-03-26T17:57:36.896Z,73.10
2019-03-26T18:00:15.964Z,73.23
2019-03-26T18:02:45.157Z,73.33
2019-03-26T18:05:26.126Z,73.43
2019-03-26T18:07:55.962Z,73.34
2019-03-26T18:10:25.200Z,73.50
2019-03-26T18:12:54.402Z,73.50
2019-03-26T18:15:23.582Z,73.81
2019-03-26T18:17:52.756Z,73.73
2019-03-26T18:20:32.600Z,74.05
2019-03-26T18:22:53.011Z,74.52
2019-03-26T18:25:22.236Z,74.41
2019-03-26T18:27:51.433Z,74.47
2019-03-26T18:30:20.648Z,74.20
2019-03-26T18:32:49.838Z,74.09
2019-03-26T18:35:19.025Z,73.84
2019-03-26T18:37:48.209Z,74.27
2019-03-26T18:40:17.546Z,74.27
2019-03-26T18:42:46.749Z,74.47
2019-03-26T18:45:16.318Z,74.64
2019-03-26T18:47:45.664Z,74.58
2019-03-26T18:50:15.175Z,74.75
2019-03-26T18:52:44.409Z,75.13
2019-03-26T18:55:13.859Z,75.63
2019-03-26T18:57:43.058Z,75.30
2019-03-26T19:00:15.028Z,75.30
2019-03-26T19:02:44.322Z,75.90
2019-03-26T19:05:13.969Z,75.90
2019-03-26T19:07:43.158Z,75.88
2019-03-26T19:10:24.045Z,75.66
2019-03-26T19:12:57.116Z,75.47
2019-03-26T19:15:24.563Z,75.40
2019-03-26T19:17:53.826Z,75.12
2019-03-26T19:20:23.018Z,75.19
2019-03-26T19:22:52.291Z,75.57
2019-03-26T19:25:21.484Z,75.75
2019-03-26T19:27:50.698Z,75.75
2019-03-26T19:30:19.998Z,75.84
2019-03-26T19:32:49.150Z,76.05
2019-03-26T19:35:18.337Z,75.89
2019-03-26T19:37:47.511Z,75.17
2019-03-26T19:40:16.796Z,75.17
2019-03-26T19:42:45.975Z,76.10
2019-03-26T19:45:15.300Z,76.10
2019-03-26T19:47:44.560Z,76.21
2019-03-26T19:50:14.884Z,76.36
2019-03-26T19:52:44.178Z,76.59
2019-03-26T19:55:13.529Z,77.06
2019-03-26T19:57:42.751Z,77.20
2019-03-26T20:00:16.782Z,77.39
2019-03-26T20:02:45.973Z,77.31
2019-03-26T20:05:15.311Z,76.99
2019-03-26T20:07:44.593Z,77.38
2019-03-26T20:10:14.539Z,76.96
2019-03-26T20:12:43.734Z,76.97
2019-03-26T20:15:14.095Z,76.97
2019-03-26T20:17:43.262Z,77.10
2019-03-26T20:20:13.589Z,77.86
2019-03-26T20:22:42.825Z,78.54
2019-03-26T20:25:13.189Z,78.07
2019-03-26T20:27:42.376Z,78.07
2019-03-26T20:30:13.434Z,78.51
2019-03-26T20:32:42.632Z,78.99
2019-03-26T20:35:13.191Z,78.99
2019-03-26T20:37:42.363Z,79.29
2019-03-26T20:40:11.996Z,79.29
2019-03-26T20:42:41.193Z,79.30
2019-03-26T20:45:14.257Z,79.54
2019-03-26T20:47:42.539Z,79.57
2019-03-26T20:50:13.682Z,79.57
2019-03-26T20:52:43.045Z,79.54
2019-03-26T20:55:13.245Z,79.32
2019-03-26T20:57:43.460Z,78.25
2019-03-26T21:00:13.896Z,78.25
2019-03-26T21:02:43.124Z,78.40
2019-03-26T21:05:13.145Z,78.56
2019-03-26T21:07:42.338Z,78.53
2019-03-26T21:10:11.563Z,79.40
2019-03-26T21:12:40.779Z,79.35
2019-03-26T21:15:10.510Z,78.83
2019-03-26T21:17:39.794Z,79.08
2019-03-26T21:20:10.156Z,78.71
2019-03-26T21:22:39.291Z,78.61
2019-03-26T21:25:10.627Z,79.14
2019-03-26T21:27:39.990Z,78.92
2019-03-26T21:30:15.499Z,78.75
2019-03-26T21:32:42.828Z,78.43
2019-03-26T21:35:13.472Z,78.21
2019-03-26T21:37:42.689Z,78.37
2019-03-26T21:40:13.593Z,78.37
2019-03-26T21:42:42.892Z,78.07
2019-03-26T21:45:12.886Z,77.71
2019-03-26T21:47:42.064Z,77.49
2019-03-26T21:50:11.578Z,77.49
2019-03-26T21:52:40.748Z,77.68
2019-03-26T21:55:13.409Z,78.11
2019-03-26T21:57:41.653Z,77.92
2019-03-26T22:00:12.608Z,77.92
2019-03-26T22:02:41.791Z,77.34
2019-03-26T22:05:11.289Z,77.40
2019-03-26T22:07:40.465Z,77.40
2019-03-26T22:10:10.789Z,77.68
2019-03-26T22:12:39.981Z,77.62
2019-03-26T22:15:10.601Z,76.96
2019-03-26T22:17:39.735Z,76.74
2019-03-26T22:20:11.864Z,76.78
2019-03-26T22:22:41.055Z,76.75
2019-03-26T22:25:10.332Z,76.24
2019-03-26T22:27:39.493Z,76.24
2019-03-26T22:30:10.433Z,76.29
2019-03-26T22:32:39.625Z,76.08
2019-03-26T22:35:10.181Z,76.07
2019-03-26T22:37:39.377Z,76.61
2019-03-26T22:40:09.288Z,76.37
2019-03-26T22:42:38.564Z,76.27
2019-03-26T22:45:10.547Z,75.87
2019-03-26T22:47:39.999Z,75.87
2019-03-26T22:50:10.521Z,75.84
2019-03-26T22:52:39.693Z,76.22
2019-03-26T22:55:10.563Z,76.86
2019-03-26T22:57:39.796Z,76.49
2019-03-26T23:00:17.237Z,76.69
2019-03-26T23:02:46.480Z,76.76
2019-03-26T23:05:16.363Z,76.41
2019-03-26T23:07:45.623Z,76.39
2019-03-26T23:10:16.929Z,75.86
2019-03-26T23:12:46.255Z,76.49
2019-03-26T23:15:25.953Z,76.49
2019-03-26T23:17:55.156Z,76.29
2019-03-26T23:20:24.336Z,76.18
2019-03-26T23:22:53.507Z,76.27
2019-03-26T23:25:22.779Z,76.27
2019-03-26T23:27:51.980Z,76.58
2019-03-26T23:30:21.233Z,77.41
2019-03-26T23:32:50.429Z,77.82
2019-03-26T23:35:19.668Z,77.97
2019-03-26T23:37:48.835Z,77.85
2019-03-26T23:40:18.073Z,77.98
2019-03-26T23:42:47.247Z,78.37
2019-03-26T23:45:16.615Z,78.37
2019-03-26T23:47:45.799Z,78.32
2019-03-26T23:50:15.057Z,77.93
2019-03-26T23:52:44.301Z,77.87
2019-03-26T23:55:13.592Z,77.40
2019-03-26T23:57:42.889Z,77.40
